Time;durP1;ratioP1;P1;durP2;ratioP2;P2;SDS_P1;SDS_P2;PMS_P1;PMS_P2;Temp;Humidity;BMP_temperature;BMP_pressure;BME280_temperature;BME280_humidity;BME280_pressure;Samples;Min_cycle;Max_cycle;Signal;HPM_P1;HPM_P2
2023/05/23 00:01:06;;;;;;;;;;;;;;;14.44;100.00;99332.75;5031065;28;922;-59
2023/05/23 00:03:33;;;;;;;;;;;;;;;14.43;100.00;99350.66;5031159;28;832;-59
2023/05/23 00:06:00;;;;;;;;;;;;;;;14.44;100.00;99335.53;5013439;28;1882;-59
2023/05/23 00:08:27;;;;;;;;;;;;;;;14.48;100.00;99339.00;5031342;28;844;-59
2023/05/23 00:10:54;;;;;;;;;;;;;;;14.53;100.00;99337.69;5030940;28;1352;-59
2023/05/23 00:13:21;;;;;;;;;;;;;;;14.56;100.00;99347.19;5031119;28;812;-59
2023/05/23 00:15:48;;;;;;;;;;;;;;;14.57;100.00;99343.16;5030839;28;916;-59
2023/05/23 00:18:15;;;;;;;;;;;;;;;14.59;100.00;99347.06;5031263;28;918;-59
2023/05/23 00:20:42;;;;;;;;;;;;;;;14.62;100.00;99340.63;5030897;28;935;-59
2023/05/23 00:23:09;;;;;;;;;;;;;;;14.63;100.00;99344.19;5030839;28;946;-59
2023/05/23 00:25:36;;;;;;;;;;;;;;;14.63;100.00;99331.06;5013082;28;1157;-59
2023/05/23 00:28:03;;;;;;;;;;;;;;;14.62;100.00;99329.50;5030736;28;1914;-59
2023/05/23 00:30:31;;;;;;;;;;;;;;;14.59;100.00;99326.81;5031084;28;965;-59
2023/05/23 00:32:59;;;;;;;;;;;;;;;14.58;100.00;99323.25;5030903;28;840;-59
2023/05/23 00:35:25;;;;;;;;;;;;;;;14.55;100.00;99328.88;5030802;28;817;-59
2023/05/23 00:37:53;;;;;;;;;;;;;;;14.53;100.00;99323.00;5030803;28;831;-59
2023/05/23 00:40:20;;;;;;;;;;;;;;;14.49;100.00;99328.66;5030687;28;954;-59
2023/05/23 00:42:46;;;;;;;;;;;;;;;14.42;100.00;99321.31;5032107;28;821;-59
2023/05/23 00:45:13;;;;;;;;;;;;;;;14.37;100.00;99321.84;5034314;28;825;-58
2023/05/23 00:47:40;;;;;;;;;;;;;;;14.38;100.00;99317.06;5034077;28;1971;-59
2023/05/23 00:50:07;;;;;;;;;;;;;;;14.36;100.00;99320.28;5034342;28;940;-59
2023/05/23 00:52:34;;;;;;;;;;;;;;;14.31;100.00;99312.47;5034071;28;828;-60
2023/05/23 00:55:01;;;;;;;;;;;;;;;14.24;100.00;99309.91;5034001;28;867;-59
2023/05/23 00:57:27;;;;;;;;;;;;;;;14.20;100.00;99306.44;5034039;28;809;-59
2023/05/23 00:59:54;;;;;;;;;;;;;;;14.17;100.00;99301.78;5034160;28;868;-59
2023/05/23 01:02:21;;;;;;;;;;;;;;;14.20;100.00;99303.66;5034054;28;836;-59
2023/05/23 01:04:53;;;;;;;;;;;;;;;14.37;100.00;99298.81;5033917;28;832;-59
2023/05/23 01:07:22;;;;;;;;;;;;;;;14.47;100.00;99300.53;5033780;28;1955;-59
2023/05/23 01:09:49;;;;;;;;;;;;;;;14.53;100.00;99290.44;5033887;28;987;-59
2023/05/23 01:12:34;;;;;;;;;;;;;;;14.60;100.00;99295.03;5033687;28;1525;-60
2023/05/23 01:15:07;;;;;;;;;;;;;;;14.56;100.00;99299.91;5033712;28;891;-60
2023/05/23 01:17:52;;;;;;;;;;;;;;;14.54;100.00;99296.75;5034434;28;765;-60
2023/05/23 01:20:25;;;;;;;;;;;;;;;14.50;100.00;99294.84;5033583;28;958;-60
2023/05/23 01:22:54;;;;;;;;;;;;;;;14.51;100.00;99292.88;5033681;28;835;-60
2023/05/23 01:25:21;;;;;;;;;;;;;;;14.52;100.00;99290.84;5033579;28;929;-60
2023/05/23 01:28:15;;;;;;;;;;;;;;;14.50;100.00;99294.84;5033458;28;1910;-60
2023/05/23 01:30:44;;;;;;;;;;;;;;;14.46;100.00;99298.94;5020147;28;1492;-60
2023/05/23 01:33:13;;;;;;;;;;;;;;;14.45;100.00;99291.84;5015695;28;1564;-60
2023/05/23 01:35:42;;;;;;;;;;;;;;;14.49;100.00;99290.50;5033367;28;875;-60
2023/05/23 01:38:09;;;;;;;;;;;;;;;14.50;100.00;99292.06;5015822;28;892;-60
2023/05/23 01:40:36;;;;;;;;;;;;;;;14.57;100.00;99290.31;5033202;28;815;-60
2023/05/23 01:43:03;;;;;;;;;;;;;;;14.66;100.00;99287.69;5033411;28;840;-60
2023/05/23 01:45:30;;;;;;;;;;;;;;;14.73;100.00;99286.69;5033320;28;879;-60
2023/05/23 01:47:57;;;;;;;;;;;;;;;14.70;100.00;99283.56;5033045;28;1886;-60
2023/05/23 01:50:25;;;;;;;;;;;;;;;14.70;100.00;99275.22;5033037;28;848;-61
2023/05/23 01:52:52;;;;;;;;;;;;;;;14.71;100.00;99278.78;5032765;28;828;-60
2023/05/23 01:55:23;;;;;;;;;;;;;;;14.69;100.00;99275.66;5032922;28;824;-60
2023/05/23 01:57:56;;;;;;;;;;;;;;;14.67;100.00;99272.53;5033056;28;884;-60
2023/05/23 02:00:23;;;;;;;;;;;;;;;14.61;100.00;99268.75;5032845;28;903;-61
2023/05/23 02:02:51;;;;;;;;;;;;;;;14.59;100.00;99271.19;5033104;28;828;-60
2023/05/23 02:05:18;;;;;;;;;;;;;;;14.55;100.00;99265.75;5032732;28;955;-61
2023/05/23 02:07:45;;;;;;;;;;;;;;;14.49;100.00;99267.50;5032621;28;1886;-60
2023/05/23 02:10:11;;;;;;;;;;;;;;;14.46;100.00;99277.47;5032332;28;1209;-60
2023/05/23 02:12:38;;;;;;;;;;;;;;;14.52;100.00;99274.16;5032697;28;824;-61
2023/05/23 02:15:04;;;;;;;;;;;;;;;14.54;100.00;99274.50;5014839;28;873;-61
2023/05/23 02:17:31;;;;;;;;;;;;;;;14.55;100.00;99276.88;5032575;28;845;-60
2023/05/23 02:19:58;;;;;;;;;;;;;;;14.56;100.00;99274.88;5032552;28;820;-61
2023/05/23 02:22:25;;;;;;;;;;;;;;;14.56;100.00;99272.09;5032489;28;887;-61
2023/05/23 02:24:52;;;;;;;;;;;;;;;14.57;100.00;99279.97;5032296;28;918;-61
2023/05/23 02:27:18;;;;;;;;;;;;;;;14.58;100.00;99287.13;5032322;28;1910;-60
2023/05/23 02:29:45;;;;;;;;;;;;;;;14.59;100.00;99279.53;5032345;28;887;-61
2023/05/23 02:32:12;;;;;;;;;;;;;;;14.58;100.00;99280.78;5032339;28;829;-61
2023/05/23 02:34:39;;;;;;;;;;;;;;;14.61;100.00;99285.44;5032254;28;868;-61
2023/05/23 02:37:06;;;;;;;;;;;;;;;14.69;100.00;99282.00;5032189;28;864;-61
2023/05/23 02:39:34;;;;;;;;;;;;;;;14.72;100.00;99288.69;5014410;28;1468;-61
2023/05/23 02:42:01;;;;;;;;;;;;;;;14.82;100.00;99289.59;5032154;28;922;-61
2023/05/23 02:44:28;;;;;;;;;;;;;;;14.90;100.00;99294.50;5032033;28;856;-61
2023/05/23 02:46:54;;;;;;;;;;;;;;;14.97;100.00;99287.16;5030537;28;1910;-61
2023/05/23 02:49:21;;;;;;;;;;;;;;;14.99;100.00;99287.47;5032037;28;895;-61
2023/05/23 02:51:48;;;;;;;;;;;;;;;15.04;100.00;99281.34;5031905;28;876;-61
2023/05/23 02:54:15;;;;;;;;;;;;;;;15.05;100.00;99294.81;5031817;28;877;-62
2023/05/23 02:56:44;;;;;;;;;;;;;;;15.08;100.00;99295.94;5031935;28;832;-62
2023/05/23 02:59:11;;;;;;;;;;;;;;;15.09;100.00;99292.72;5031833;28;922;-61
2023/05/23 03:01:38;;;;;;;;;;;;;;;15.20;100.00;99292.38;5031749;28;903;-62
2023/05/23 03:04:05;;;;;;;;;;;;;;;15.24;100.00;99293.03;5031781;28;898;-61
2023/05/23 03:06:33;;;;;;;;;;;;;;;15.28;100.00;99281.81;5031079;28;1996;-61
2023/05/23 03:09:00;;;;;;;;;;;;;;;15.29;100.00;99278.53;5031540;28;964;-61
2023/05/23 03:11:28;;;;;;;;;;;;;;;15.40;100.00;99283.00;5031434;28;1263;-62
2023/05/23 03:13:55;;;;;;;;;;;;;;;15.45;100.00;99283.22;5031641;28;934;-62
2023/05/23 03:16:23;;;;;;;;;;;;;;;15.50;100.00;99285.41;5031741;28;824;-62
2023/05/23 03:18:49;;;;;;;;;;;;;;;15.52;100.00;99279.41;5031608;28;946;-63
2023/05/23 03:21:16;;;;;;;;;;;;;;;15.55;100.00;99272.16;5031562;28;1054;-64
2023/05/23 03:23:43;;;;;;;;;;;;;;;15.55;100.00;99275.72;5031745;28;887;-63
2023/05/23 03:26:10;;;;;;;;;;;;;;;15.58;100.00;99279.63;5031505;28;1973;-62
2023/05/23 03:28:37;;;;;;;;;;;;;;;15.60;100.00;99275.16;5031514;28;820;-62
2023/05/23 03:31:04;;;;;;;;;;;;;;;15.63;100.00;99274.25;5031397;28;860;-61
2023/05/23 03:33:31;;;;;;;;;;;;;;;15.69;100.00;99271.69;5031447;28;816;-62
2023/05/23 03:35:58;;;;;;;;;;;;;;;15.74;100.00;99275.94;5031412;28;895;-63
2023/05/23 03:38:25;;;;;;;;;;;;;;;15.77;100.00;99278.59;5031439;28;915;-63
2023/05/23 03:40:52;;;;;;;;;;;;;;;15.83;100.00;99279.59;5031295;28;887;-64
2023/05/23 03:43:19;;;;;;;;;;;;;;;15.91;100.00;99288.47;5031360;28;875;-64
2023/05/23 03:45:46;;;;;;;;;;;;;;;15.98;100.00;99293.00;5031269;28;899;-63
2023/05/23 03:48:13;;;;;;;;;;;;;;;16.04;100.00;99291.19;5031283;28;1948;-63
2023/05/23 03:50:40;;;;;;;;;;;;;;;16.08;100.00;99298.19;5031207;28;981;-63
2023/05/23 03:53:08;;;;;;;;;;;;;;;16.15;100.00;99297.16;5031259;28;848;-62
2023/05/23 03:55:34;;;;;;;;;;;;;;;16.18;100.00;99290.69;5031330;28;846;-62
2023/05/23 03:58:01;;;;;;;;;;;;;;;16.27;100.00;99299.13;5031123;28;939;-62
2023/05/23 04:00:26;;;;;;;;;;;;;;;16.30;100.00;99295.44;5031446;28;860;-62
2023/05/23 04:02:53;;;;;;;;;;;;;;;16.40;100.00;99306.66;5031184;28;836;-63
2023/05/23 04:05:20;;;;;;;;;;;;;;;16.47;100.00;99298.81;5031139;28;884;-63
2023/05/23 04:07:48;;;;;;;;;;;;;;;16.54;100.00;99290.16;5031121;28;1886;-63
2023/05/23 04:10:15;;;;;;;;;;;;;;;16.62;100.00;99287.88;5030935;28;1389;-62
2023/05/23 04:12:41;;;;;;;;;;;;;;;16.83;100.00;99282.75;5031370;28;876;-63
2023/05/23 04:15:08;;;;;;;;;;;;;;;16.92;100.00;99286.34;5030997;28;867;-64
2023/05/23 04:17:37;;;;;;;;;;;;;;;16.97;100.00;99289.78;5033878;28;884;-64
2023/05/23 04:20:06;;;;;;;;;;;;;;;16.90;100.00;99285.28;5034797;28;836;-64
2023/05/23 04:22:33;;;;;;;;;;;;;;;16.80;100.00;99287.22;5034676;28;891;-62
2023/05/23 04:25:00;;;;;;;;;;;;;;;16.76;100.00;99289.34;5034741;28;914;-65
2023/05/23 04:27:26;;;;;;;;;;;;;;;16.70;100.00;99289.16;5034545;28;1975;-63
2023/05/23 04:29:55;;;;;;;;;;;;;;;16.73;100.00;99293.06;5034673;28;816;-64
2023/05/23 04:32:22;;;;;;;;;;;;;;;16.73;100.00;99293.06;5034543;28;927;-63
2023/05/23 04:34:48;;;;;;;;;;;;;;;16.75;100.00;99296.19;5034681;28;887;-63
2023/05/23 04:37:16;;;;;;;;;;;;;;;16.62;100.00;99303.84;5034434;28;852;-63
2023/05/23 04:39:43;;;;;;;;;;;;;;;16.67;100.00;99308.84;5034480;28;852;-64
2023/05/23 04:42:09;;;;;;;;;;;;;;;16.70;100.00;99311.47;5034401;28;844;-63
2023/05/23 04:44:36;;;;;;;;;;;;;;;16.72;100.00;99311.03;5034355;28;860;-63
2023/05/23 04:47:02;;;;;;;;;;;;;;;16.97;100.00;99290.56;5034170;28;1881;-64
2023/05/23 04:49:33;;;;;;;;;;;;;;;17.10;100.00;99307.97;5034256;28;1466;-63
2023/05/23 04:51:59;;;;;;;;;;;;;;;17.28;100.00;99312.06;5034277;28;965;-64
2023/05/23 04:54:26;;;;;;;;;;;;;;;17.32;100.00;99307.91;5034227;28;832;-62
2023/05/23 04:56:53;;;;;;;;;;;;;;;17.21;100.00;99313.13;5034178;28;851;-64
2023/05/23 04:59:20;;;;;;;;;;;;;;;17.17;100.00;99309.72;5034150;28;886;-64
2023/05/23 05:14:11;;;;;;;;;;;;;;;17.40;100.00;99333.53;5032773;28;1645;-63
2023/05/23 05:16:37;;;;;;;;;;;;;;;17.37;100.00;99339.25;5016462;28;1424;-64
2023/05/23 05:19:04;;;;;;;;;;;;;;;17.32;100.00;99338.63;5033747;28;880;-65
2023/05/23 05:21:31;;;;;;;;;;;;;;;17.26;100.00;99337.69;5034019;28;772;-64
2023/05/23 05:23:58;;;;;;;;;;;;;;;17.31;100.00;99328.69;5033917;28;875;-64
2023/05/23 05:26:25;;;;;;;;;;;;;;;17.38;100.00;99329.66;5033982;28;1918;-63
2023/05/23 05:28:52;;;;;;;;;;;;;;;17.45;100.00;99340.53;5033248;28;843;-62
2023/05/23 05:31:18;;;;;;;;;;;;;;;17.51;100.00;99330.31;5033885;28;800;-63
2023/05/23 05:45:55;;;;;;;;;;;;;;;18.09;100.00;99335.09;5033481;28;654;-63
2023/05/23 05:48:22;;;;;;;;;;;;;;;18.28;100.00;99343.47;5033139;28;1931;-63
2023/05/23 05:50:48;;;;;;;;;;;;;;;18.41;100.00;99344.09;5032979;28;860;-64
2023/05/23 05:53:15;;;;;;;;;;;;;;;18.78;100.00;99346.88;5033048;28;918;-65
2023/05/23 05:55:42;;;;;;;;;;;;;;;19.31;100.00;99354.78;5032983;28;824;-62
2023/05/23 05:58:08;;;;;;;;;;;;;;;19.24;100.00;99334.72;5033031;28;856;-64
2023/05/23 06:00:40;;;;;;;;;;;;;;;18.88;100.00;99339.22;5032920;28;877;-63
2023/05/23 06:03:11;;;;;;;;;;;;;;;18.65;100.00;99357.41;5032893;28;816;-62
2023/05/23 06:05:39;;;;;;;;;;;;;;;18.56;100.00;99361.81;5015222;28;1551;-63
2023/05/23 06:08:07;;;;;;;;;;;;;;;18.47;100.00;99358.22;5032829;28;1890;-65
2023/05/23 06:10:36;;;;;;;;;;;;;;;18.38;100.00;99350.63;5033026;28;927;-62
2023/05/23 06:13:03;;;;;;;;;;;;;;;18.42;100.00;99348.44;5032602;28;1281;-63
2023/05/23 06:15:29;;;;;;;;;;;;;;;18.54;100.00;99346.72;5032643;28;907;-65
2023/05/23 06:17:56;;;;;;;;;;;;;;;18.55;100.00;99357.44;5032607;28;872;-64
2023/05/23 06:20:23;;;;;;;;;;;;;;;18.74;100.00;99360.22;5032519;28;876;-65
2023/05/23 06:25:53;;;;;;;;;;;;;;;18.95;100.00;99345.28;5032495;28;685;-62
2023/05/23 06:28:20;;;;;;;;;;;;;;;19.04;100.00;99349.28;5032334;28;1910;-64
2023/05/23 06:30:47;;;;;;;;;;;;;;;19.06;100.00;99350.38;5032280;28;919;-63
2023/05/23 06:33:15;;;;;;;;;;;;;;;19.13;100.00;99341.63;5032352;28;812;-63
2023/05/23 06:35:42;;;;;;;;;;;;;;;19.42;100.00;99347.91;5032257;28;835;-63
2023/05/23 06:38:09;;;;;;;;;;;;;;;19.53;100.00;99343.31;5032206;28;883;-65
2023/05/23 06:40:36;;;;;;;;;;;;;;;19.60;100.00;99336.56;5031155;28;923;-68
2023/05/23 06:43:03;;;;;;;;;;;;;;;19.74;100.00;99344.31;5032145;28;863;-64
2023/05/23 06:45:30;;;;;;;;;;;;;;;19.94;100.00;99342.94;5032112;28;831;-65
2023/05/23 06:47:59;;;;;;;;;;;;;;;20.08;100.00;99336.59;5031893;28;2001;-62
2023/05/23 06:50:26;;;;;;;;;;;;;;;19.91;100.00;99336.25;5032164;28;855;-62
2023/05/23 06:52:53;;;;;;;;;;;;;;;20.04;100.00;99340.84;5032276;28;816;-63
2023/05/23 06:55:19;;;;;;;;;;;;;;;20.06;100.00;99344.72;5032224;28;804;-63
2023/05/23 06:57:46;;;;;;;;;;;;;;;20.13;100.00;99347.16;5031926;28;863;-64
2023/05/23 07:00:13;;;;;;;;;;;;;;;20.19;100.00;99333.25;5032244;28;788;-63
2023/05/23 07:02:41;;;;;;;;;;;;;;;20.27;100.00;99331.63;5032219;28;853;-63
2023/05/23 07:05:08;;;;;;;;;;;;;;;20.30;100.00;99343.91;5032025;28;808;-64
2023/05/23 07:07:34;;;;;;;;;;;;;;;20.25;100.00;99341.75;5031788;28;1949;-63
2023/05/23 07:10:01;;;;;;;;;;;;;;;20.45;100.00;99338.31;5032241;28;883;-63
2023/05/23 07:12:28;;;;;;;;;;;;;;;21.09;100.00;99329.25;5031612;28;1329;-63
2023/05/23 07:14:55;;;;;;;;;;;;;;;20.93;100.00;99340.97;5031657;28;921;-64
2023/05/23 07:17:22;;;;;;;;;;;;;;;20.95;100.00;99342.06;5031993;28;816;-64
2023/05/23 07:19:50;;;;;;;;;;;;;;;21.13;100.00;99335.44;5031879;28;808;-64
2023/05/23 07:22:17;;;;;;;;;;;;;;;21.50;100.00;99331.41;5031978;28;828;-65
2023/05/23 07:24:45;;;;;;;;;;;;;;;22.13;100.00;99330.97;5030780;28;1513;-64
2023/05/23 07:27:12;;;;;;;;;;;;;;;23.12;100.00;99328.13;5031685;28;1974;-64
2023/05/23 07:29:40;;;;;;;;;;;;;;;24.00;100.00;99325.56;5031696;28;879;-64
2023/05/23 07:32:06;;;;;;;;;;;;;;;23.68;100.00;99331.28;5031419;28;800;-63
2023/05/23 07:34:33;;;;;;;;;;;;;;;24.23;96.87;99332.81;5031604;28;852;-63
2023/05/23 07:49:11;;;;;;;;;;;;;;;25.23;76.74;99335.56;5031511;28;658;-64
2023/05/23 07:51:38;;;;;;;;;;;;;;;23.87;82.60;99342.19;5032601;28;808;-65
2023/05/23 07:54:05;;;;;;;;;;;;;;;22.98;85.41;99347.47;5035186;28;828;-64
2023/05/23 07:56:32;;;;;;;;;;;;;;;22.17;87.49;99354.81;5035272;28;848;-65
2023/05/23 07:58:59;;;;;;;;;;;;;;;21.55;87.69;99351.19;5035165;28;832;-65
2023/05/23 08:01:25;;;;;;;;;;;;;;;21.07;89.40;99353.47;5035115;28;887;-66
2023/05/23 08:03:51;;;;;;;;;;;;;;;20.92;90.79;99354.25;5035140;28;825;-63
2023/05/23 08:06:18;;;;;;;;;;;;;;;21.00;91.99;99354.66;5035051;28;832;-64
2023/05/23 08:08:45;;;;;;;;;;;;;;;20.93;91.40;99361.44;5034964;28;813;-64
2023/05/23 08:11:13;;;;;;;;;;;;;;;21.10;94.51;99363.72;5034866;28;1007;-63
2023/05/23 08:13:40;;;;;;;;;;;;;;;21.07;92.09;99362.66;5034789;28;1287;-64
2023/05/23 08:16:07;;;;;;;;;;;;;;;20.94;91.86;99365.78;5035082;28;808;-65
2023/05/23 08:18:35;;;;;;;;;;;;;;;20.95;92.63;99360.94;5034755;28;816;-65
2023/05/23 08:21:03;;;;;;;;;;;;;;;21.34;95.71;99372.06;5034742;28;894;-66
2023/05/23 08:23:30;;;;;;;;;;;;;;;21.43;94.77;99362.75;5034707;28;856;-66
2023/05/23 08:25:57;;;;;;;;;;;;;;;21.59;96.45;99360.19;5034668;28;812;-65
2023/05/23 08:28:24;;;;;;;;;;;;;;;21.92;98.46;99364.72;5034548;28;1977;-65
2023/05/23 08:30:52;;;;;;;;;;;;;;;22.14;94.98;99369.84;5016805;28;1276;-65
2023/05/23 08:33:19;;;;;;;;;;;;;;;21.88;89.30;99364.16;5034712;28;868;-65
2023/05/23 08:35:46;;;;;;;;;;;;;;;21.55;88.29;99358.81;5034999;28;789;-64
2023/05/23 08:38:14;;;;;;;;;;;;;;;21.50;88.27;99368.72;5034642;28;835;-64
2023/05/23 08:40:42;;;;;;;;;;;;;;;21.63;94.22;99365.59;5035249;28;780;-63
2023/05/23 08:43:11;;;;;;;;;;;;;;;21.84;93.64;99369.22;5034532;28;808;-64
2023/05/23 08:45:38;;;;;;;;;;;;;;;22.12;95.81;99365.97;5034690;28;839;-65
2023/05/23 08:48:08;;;;;;;;;;;;;;;22.08;95.62;99368.22;5034086;28;1886;-64
2023/05/23 08:50:36;;;;;;;;;;;;;;;22.03;93.74;99372.53;5034418;28;840;-64
2023/05/23 08:53:03;;;;;;;;;;;;;;;21.98;89.17;99362.75;5034378;28;895;-64
2023/05/23 08:55:31;;;;;;;;;;;;;;;21.68;90.30;99378.19;5034458;28;891;-65
2023/05/23 08:57:59;;;;;;;;;;;;;;;21.65;93.09;99365.09;5034191;28;947;-64
2023/05/23 09:00:26;;;;;;;;;;;;;;;21.66;96.70;99372.28;5034035;28;948;-65
2023/05/23 09:02:53;;;;;;;;;;;;;;;21.39;93.55;99372.13;5033113;28;863;-64
2023/05/23 09:05:21;;;;;;;;;;;;;;;21.40;94.27;99378.50;5034000;28;843;-64
2023/05/23 09:07:49;;;;;;;;;;;;;;;22.28;91.26;99371.06;5033856;28;1894;-65
2023/05/23 09:10:21;;;;;;;;;;;;;;;22.46;88.27;99377.66;5034240;28;894;-64
2023/05/23 09:12:48;;;;;;;;;;;;;;;23.02;87.42;99379.03;5033450;28;1400;-63
2023/05/23 09:15:15;;;;;;;;;;;;;;;22.58;87.61;99370.91;5033808;28;867;-65
2023/05/23 09:17:43;;;;;;;;;;;;;;;22.22;89.53;99375.84;5033532;28;930;-64
2023/05/23 09:20:14;;;;;;;;;;;;;;;22.17;90.29;99376.56;5033698;28;941;-65
2023/05/23 09:22:40;;;;;;;;;;;;;;;22.13;91.32;99373.94;5034358;28;851;-64
2023/05/23 09:25:07;;;;;;;;;;;;;;;22.59;90.62;99369.63;5034090;28;820;-65
2023/05/23 09:27:34;;;;;;;;;;;;;;;23.99;89.15;99369.94;5033491;28;1918;-65
2023/05/23 09:30:08;;;;;;;;;;;;;;;24.61;87.47;99367.38;5033977;28;808;-66
2023/05/23 09:32:36;;;;;;;;;;;;;;;25.52;79.67;99359.72;5033467;28;892;-66
2023/05/23 09:35:06;;;;;;;;;;;;;;;25.87;78.43;99364.00;5033428;28;877;-64
2023/05/23 09:37:33;;;;;;;;;;;;;;;25.07;75.38;99376.66;5033442;28;871;-64
2023/05/23 10:11:27;;;;;;;;;;;;;;;23.01;84.06;99362.63;5213297;22;1506;-63
2023/05/23 10:13:54;;;;;;;;;;;;;;;23.20;81.73;99360.22;5049052;28;1157;-64
2023/05/23 10:16:47;;;;;;;;;;;;;;;23.68;80.94;99345.38;5072740;28;906;-63
2023/05/23 10:19:19;;;;;;;;;;;;;;;23.68;78.98;99356.66;5069943;28;1039;-63
2023/05/23 10:21:49;;;;;;;;;;;;;;;23.65;78.23;99343.59;5072721;28;898;-61
2023/05/23 10:24:16;;;;;;;;;;;;;;;24.04;78.71;99337.38;5072322;28;946;-64
2023/05/23 10:26:44;;;;;;;;;;;;;;;24.34;75.72;99346.22;5072300;28;1914;-62
2023/05/23 10:29:10;;;;;;;;;;;;;;;24.43;73.69;99345.19;5072334;28;832;-64
2023/05/23 10:31:39;;;;;;;;;;;;;;;24.55;72.94;99341.16;5072133;28;1153;-62
2023/05/23 10:34:15;;;;;;;;;;;;;;;24.89;71.30;99331.97;5072414;28;875;-62
2023/05/23 10:37:05;;;;;;;;;;;;;;;24.39;70.75;99331.34;5070874;28;1254;-62
2023/05/23 10:39:43;;;;;;;;;;;;;;;24.49;72.30;99331.13;5062949;28;1391;-63
2023/05/23 10:42:18;;;;;;;;;;;;;;;25.04;72.10;99338.88;5071995;28;887;-63
2023/05/23 10:44:44;;;;;;;;;;;;;;;24.61;71.20;99344.00;5072118;28;889;-61
2023/05/23 10:47:11;;;;;;;;;;;;;;;23.95;70.39;99341.19;5071887;28;1909;-62
2023/05/23 10:49:42;;;;;;;;;;;;;;;23.63;72.15;99334.84;5071950;28;875;-63
2023/05/23 10:52:10;;;;;;;;;;;;;;;23.62;72.56;99328.44;5071914;28;843;-63
2023/05/23 10:54:46;;;;;;;;;;;;;;;23.38;71.94;99331.63;5071843;28;839;-61
2023/05/23 10:57:16;;;;;;;;;;;;;;;23.37;73.12;99338.56;5071840;28;832;-61
2023/05/23 10:59:44;;;;;;;;;;;;;;;23.39;73.02;99336.00;5071827;28;890;-62
2023/05/23 11:02:15;;;;;;;;;;;;;;;23.52;73.56;99332.75;5071747;28;898;-62
2023/05/23 11:04:43;;;;;;;;;;;;;;;23.49;72.76;99330.91;5071850;28;811;-63
2023/05/23 11:07:29;;;;;;;;;;;;;;;23.26;75.25;99334.88;5071654;28;1956;-63
2023/05/23 11:10:10;;;;;;;;;;;;;;;22.92;75.91;99341.00;5071101;28;1378;-64
2023/05/23 11:12:39;;;;;;;;;;;;;;;22.81;76.83;99338.84;5071825;28;882;-64
2023/05/23 11:15:16;;;;;;;;;;;;;;;22.62;76.15;99337.66;5071692;28;847;-64
2023/05/23 11:17:56;;;;;;;;;;;;;;;22.60;76.59;99346.59;5071499;28;811;-63
2023/05/23 11:20:29;;;;;;;;;;;;;;;22.61;76.01;99347.34;5071874;28;902;-63
2023/05/23 11:23:00;;;;;;;;;;;;;;;22.90;75.86;99343.53;5071478;28;875;-62
2023/05/23 11:25:43;;;;;;;;;;;;;;;23.39;74.75;99340.88;5071394;28;878;-62
2023/05/23 11:28:11;;;;;;;;;;;;;;;24.18;74.69;99336.41;5071300;28;1965;-64
2023/05/23 11:30:38;;;;;;;;;;;;;;;24.49;73.13;99339.59;5071380;28;962;-63
2023/05/23 11:33:11;;;;;;;;;;;;;;;24.44;72.49;99341.09;5071431;28;839;-66
2023/05/23 11:35:37;;;;;;;;;;;;;;;24.56;73.03;99345.53;5071682;28;805;-64
2023/05/23 11:38:05;;;;;;;;;;;;;;;24.48;73.36;99352.16;5071578;28;866;-64
2023/05/23 11:40:33;;;;;;;;;;;;;;;24.18;75.33;99355.41;5071563;28;892;-64
2023/05/23 11:43:02;;;;;;;;;;;;;;;23.81;77.40;99362.69;5071540;28;866;-64
2023/05/23 11:45:30;;;;;;;;;;;;;;;23.07;81.24;99379.59;5071318;28;963;-63
2023/05/23 11:47:58;;;;;;;;;;;;;;;22.56;83.99;99381.88;5071152;28;2000;-63
2023/05/23 11:50:25;;;;;;;;;;;;;;;22.35;86.29;99375.50;5071294;28;882;-63
2023/05/23 11:52:53;;;;;;;;;;;;;;;22.65;86.38;99375.31;5071315;28;886;-62
2023/05/23 11:55:21;;;;;;;;;;;;;;;23.30;84.81;99378.50;5071177;28;851;-65
2023/05/23 11:57:48;;;;;;;;;;;;;;;23.40;83.35;99364.97;5071176;28;874;-63
2023/05/23 12:00:15;;;;;;;;;;;;;;;23.20;82.96;99369.44;5071191;28;803;-66
2023/05/23 12:02:43;;;;;;;;;;;;;;;22.98;83.71;99377.66;5071163;28;963;-64
2023/05/23 12:05:10;;;;;;;;;;;;;;;22.74;85.27;99377.97;5071173;28;866;-64
2023/05/23 12:07:48;;;;;;;;;;;;;;;22.90;84.98;99391.44;5070955;28;1951;-64
2023/05/23 12:10:21;;;;;;;;;;;;;;;24.27;82.01;99391.88;5070851;28;1185;-63
2023/05/23 12:12:47;;;;;;;;;;;;;;;24.36;83.22;99380.34;5071017;28;854;-65
2023/05/23 12:15:14;;;;;;;;;;;;;;;24.99;81.07;99367.16;5071158;28;843;-62
2023/05/23 12:17:46;;;;;;;;;;;;;;;25.81;78.28;99364.00;5070967;28;898;-62
2023/05/23 12:20:13;;;;;;;;;;;;;;;25.60;77.38;99366.34;5071018;28;1057;-62
2023/05/23 12:22:40;;;;;;;;;;;;;;;25.54;77.19;99364.84;5071080;28;867;-64
2023/05/23 12:25:10;;;;;;;;;;;;;;;25.11;76.03;99368.69;5071062;28;890;-63
2023/05/23 12:27:39;;;;;;;;;;;;;;;25.73;74.57;99374.31;5070810;28;1914;-63
2023/05/23 12:30:09;;;;;;;;;;;;;;;25.57;73.54;99372.31;5070842;28;896;-62
2023/05/23 12:32:39;;;;;;;;;;;;;;;25.19;75.11;99369.72;5070834;28;944;-62
2023/05/23 12:35:07;;;;;;;;;;;;;;;26.27;71.69;99358.97;5070867;28;890;-62
2023/05/23 12:37:37;;;;;;;;;;;;;;;25.65;72.56;99373.31;5072209;28;859;-64
2023/05/23 12:40:11;;;;;;;;;;;;;;;24.71;75.68;99378.41;5074615;28;941;-62
2023/05/23 12:42:54;;;;;;;;;;;;;;;23.93;79.81;99371.22;5074401;28;862;-62
2023/05/23 12:45:36;;;;;;;;;;;;;;;23.38;82.60;99378.78;5074420;28;835;-63
2023/05/23 12:48:03;;;;;;;;;;;;;;;23.13;84.45;99386.81;5074240;28;1885;-63
2023/05/23 12:50:30;;;;;;;;;;;;;;;23.23;85.88;99384.56;5074699;28;878;-63
2023/05/23 12:52:57;;;;;;;;;;;;;;;24.91;83.13;99388.75;5074717;28;902;-64
2023/05/23 12:55:25;;;;;;;;;;;;;;;25.94;79.11;99365.53;5074244;28;885;-62
2023/05/23 12:57:51;;;;;;;;;;;;;;;26.94;76.28;99369.13;5074522;28;819;-62
2023/05/23 13:00:19;;;;;;;;;;;;;;;27.29;74.18;99365.53;5074857;28;928;-64
2023/05/23 13:02:45;;;;;;;;;;;;;;;27.56;73.38;99365.00;5074155;28;869;-63
2023/05/23 13:05:13;;;;;;;;;;;;;;;28.37;71.45;99361.50;5074166;28;1213;-63
2023/05/23 13:07:40;;;;;;;;;;;;;;;29.14;68.36;99363.00;5073943;28;1890;-63
2023/05/23 13:10:07;;;;;;;;;;;;;;;29.84;65.20;99360.69;5072439;28;1376;-65
2023/05/23 13:12:34;;;;;;;;;;;;;;;30.52;63.42;99365.00;5074369;28;830;-64
2023/05/23 13:15:01;;;;;;;;;;;;;;;29.74;62.36;99371.00;5074573;28;835;-63
2023/05/23 13:17:28;;;;;;;;;;;;;;;27.79;67.67;99363.47;5074490;28;819;-63
2023/05/23 13:19:55;;;;;;;;;;;;;;;26.43;72.58;99357.34;5073906;28;874;-63
2023/05/23 13:22:21;;;;;;;;;;;;;;;25.59;75.99;99355.56;5074150;28;847;-62
2023/05/23 13:24:49;;;;;;;;;;;;;;;25.37;77.42;99360.00;5074034;28;913;-63
2023/05/23 13:27:15;;;;;;;;;;;;;;;25.20;78.95;99360.00;5074206;28;1910;-63
2023/05/23 13:29:43;;;;;;;;;;;;;;;24.54;81.02;99359.41;5073966;28;784;-62
2023/05/23 13:32:09;;;;;;;;;;;;;;;23.80;84.24;99352.66;5073678;28;851;-62
2023/05/23 13:34:36;;;;;;;;;;;;;;;23.26;87.27;99368.69;5072342;28;2175;-63
2023/05/23 13:37:04;;;;;;;;;;;;;;;22.86;93.16;99370.41;5073267;28;871;-62
2023/05/23 13:39:31;;;;;;;;;;;;;;;22.53;99.57;99365.97;5073704;28;918;-65
2023/05/23 13:41:58;;;;;;;;;;;;;;;23.07;97.86;99360.63;5073488;28;819;-62
2023/05/23 13:44:25;;;;;;;;;;;;;;;22.61;99.34;99355.81;5073565;28;878;-62
2023/05/23 13:46:53;;;;;;;;;;;;;;;22.72;99.45;99353.09;5073470;28;1917;-62
2023/05/23 13:49:19;;;;;;;;;;;;;;;23.15;99.41;99349.66;5072805;28;824;-62
2023/05/23 13:51:47;;;;;;;;;;;;;;;24.95;91.80;99358.16;5072033;28;1726;-62
2023/05/23 13:54:13;;;;;;;;;;;;;;;25.53;85.96;99347.09;5073726;28;839;-63
2023/05/23 13:56:40;;;;;;;;;;;;;;;25.57;85.77;99347.59;5073333;28;870;-62
2023/05/23 13:59:08;;;;;;;;;;;;;;;26.83;80.87;99349.38;5073191;28;912;-62
2023/05/23 14:01:35;;;;;;;;;;;;;;;27.61;77.06;99355.66;5073094;28;858;-62
2023/05/23 14:04:02;;;;;;;;;;;;;;;27.75;74.92;99353.72;5073363;28;926;-63
2023/05/23 14:06:31;;;;;;;;;;;;;;;26.63;77.42;99357.00;5072859;28;882;-65
2023/05/23 14:08:58;;;;;;;;;;;;;;;25.51;81.56;99357.38;5072624;28;1945;-63
2023/05/23 14:11:24;;;;;;;;;;;;;;;24.51;85.42;99370.94;5072406;28;1443;-62
2023/05/23 14:13:51;;;;;;;;;;;;;;;23.71;89.18;99366.19;5072683;28;874;-62
2023/05/23 14:16:18;;;;;;;;;;;;;;;23.03;92.35;99357.25;5072705;28;858;-62